Birger Jarl — SIAU — position and weather

sailwx.info

Track history (hours):
 
Tides and Currents Weather Stations Pressure Air Temp Water Temp Dewpoint Dewpoint Depression Visibility Wind Speed Wind Dir Waves Ship Positions

Birger Jarl

Last reported at 2017-May-28 20:30 UTC. Time now 2017-May-28 20:34 UTC.
Position N 59°19' E 018°05'.

; draft 5.1 m.

Type: Passenger vessel. MMSI: 265878000.

Date/timePositionNaut miles runAvg speedWind from/ knotsBaromVisibWave heightAir tempDewpointWater temp
2017-May-28 20:30N 59°19' E 018°05'0 0.0
2017-May-28 20:00N 59°19' E 018°05'0 0.0
2017-May-28 19:30N 59°19' E 018°05'0 0.0
2017-May-28 19:00N 59°19' E 018°05'0 0.0
2017-May-28 18:30N 59°19' E 018°05'0 0.0
2017-May-28 18:00N 59°19' E 018°05'0 0.0
2017-May-28 17:30N 59°19' E 018°05'0 0.0
2017-May-28 17:00N 59°19' E 018°05'0 0.0
2017-May-28 16:30N 59°19' E 018°05'0 0.0
2017-May-28 16:00N 59°19' E 018°05'0 0.0
2017-May-28 15:30N 59°19' E 018°05'0 0.0
2017-May-28 15:00N 59°19' E 018°05'0 0.0
2017-May-28 14:00N 59°19' E 018°05'0 0.0
2017-May-28 13:31N 59°19' E 018°05'0 0.0
2017-May-28 13:00N 59°19' E 018°05'0 0.7
2017-May-28 12:30N 59°19' E 018°06'2 4.9
2017-May-28 12:00N 59°19' E 018°10'4 8.2
2017-May-28 11:30N 59°22' E 018°16'0 1.0
2017-May-28 11:00N 59°22' E 018°16'510.2
2017-May-28 10:30N 59°19' E 018°08'1 2.8
2017-May-28 10:00N 59°19' E 018°05'0 0.0
2017-May-28 09:30N 59°19' E 018°05'0 0.0
2017-May-28 09:00N 59°19' E 018°05'0 0.0
2017-May-28 08:30N 59°19' E 018°05'0 0.0
2017-May-28 08:01N 59°19' E 018°05'0 0.0
2017-May-28 07:30N 59°19' E 018°05'0 0.0
2017-May-28 07:01N 59°19' E 018°05'0 0.0
2017-May-28 06:30N 59°19' E 018°05'0 0.0
2017-May-28 06:00N 59°19' E 018°05'0 0.0
2017-May-28 05:31N 59°19' E 018°05'0 0.0
2017-May-28 05:00N 59°19' E 018°05'0 0.0
2017-May-28 04:30N 59°19' E 018°05'0 0.0
2017-May-28 04:01N 59°19' E 018°05'0 0.0
2017-May-28 03:30N 59°19' E 018°05'0 0.0
2017-May-28 03:00N 59°19' E 018°05'0 0.0
2017-May-28 02:31N 59°19' E 018°05'0 0.0
2017-May-28 02:01N 59°19' E 018°05'0 0.0
2017-May-28 01:30N 59°19' E 018°05'0 0.0
2017-May-28 01:01N 59°19' E 018°05'0 0.0
2017-May-28 00:30N 59°19' E 018°05'0 0.0
2017-May-28 00:01N 59°19' E 018°05'0 0.0
2017-May-27 23:30N 59°19' E 018°05'0 0.0
2017-May-27 23:00N 59°19' E 018°05'0 0.0
2017-May-27 22:31N 59°19' E 018°05'0 0.0
2017-May-27 22:01N 59°19' E 018°05'0 0.0
2017-May-27 21:31N 59°19' E 018°05'0 0.0
2017-May-27 21:00N 59°19' E 018°05'0 0.0
2017-May-27 20:31N 59°19' E 018°05'0 0.0
2017-May-27 20:01N 59°19' E 018°05'0 0.0
2017-May-27 19:31N 59°19' E 018°05'0 0.0
2017-May-27 19:01N 59°19' E 018°05'0 0.0
2017-May-27 18:31N 59°19' E 018°05'0 0.0
2017-May-27 18:00N 59°19' E 018°05'0 0.0
2017-May-27 17:30N 59°19' E 018°05'0 0.0
2017-May-27 17:00N 59°19' E 018°05'0 0.0
2017-May-27 16:30N 59°19' E 018°05'0 0.0
2017-May-27 16:00N 59°19' E 018°05'0 0.0
2017-May-27 15:30N 59°19' E 018°05'0 0.0
2017-May-27 15:00N 59°19' E 018°05'0 0.0
2017-May-27 14:00N 59°19' E 018°05'0 0.0
2017-May-27 13:31N 59°19' E 018°05'0 0.0
2017-May-27 13:00N 59°19' E 018°05'3 5.6
2017-May-27 12:31N 59°19' E 018°10'4 7.3
2017-May-27 12:01N 59°22' E 018°16'5 9.7
2017-May-27 11:30N 59°19' E 018°08'2 3.1
2017-May-27 11:01N 59°19' E 018°05'0 0.0
2017-May-27 10:29N 59°19' E 018°05'0 0.0
2017-May-27 09:59N 59°19' E 018°05'0 0.0
2017-May-27 09:29N 59°19' E 018°05'0 0.0
2017-May-27 08:59N 59°19' E 018°05'0 0.0
2017-May-27 08:29N 59°19' E 018°05'0 0.0
2017-May-27 07:59N 59°19' E 018°05'0 0.0
2017-May-27 07:29N 59°19' E 018°05'0 0.0
2017-May-27 06:59N 59°19' E 018°05'0 0.0
2017-May-27 06:29N 59°19' E 018°05'0 0.0
2017-May-27 05:56N 59°19' E 018°05'0 0.0
2017-May-27 05:26N 59°19' E 018°05'0 0.0
2017-May-27 04:56N 59°19' E 018°05'0 0.0
2017-May-27 04:26N 59°19' E 018°05'0 0.0
2017-May-27 03:56N 59°19' E 018°05'0 0.0
2017-May-27 03:26N 59°19' E 018°05'0 0.0
2017-May-27 02:59N 59°19' E 018°05'0 0.0
2017-May-27 02:26N 59°19' E 018°05'0 0.0
2017-May-27 01:59N 59°19' E 018°05'0 0.0
2017-May-27 01:29N 59°19' E 018°05'0 0.0
2017-May-27 00:59N 59°19' E 018°05'0 0.0
2017-May-27 00:29N 59°19' E 018°05'0 0.0
2017-May-26 23:59N 59°19' E 018°05'0 0.0
2017-May-26 23:29N 59°19' E 018°05'0 0.0
2017-May-26 22:59N 59°19' E 018°05'0 0.0
2017-May-26 22:29N 59°19' E 018°05'0 0.0
2017-May-26 21:59N 59°19' E 018°05'0 0.0
2017-May-26 21:23N 59°19' E 018°05'0 0.0
2017-May-26 20:59N 59°19' E 018°05'0 0.0
2017-May-26 20:29N 59°19' E 018°05'0 0.0
2017-May-26 19:56N 59°19' E 018°05'0 0.0
2017-May-26 19:29N 59°19' E 018°05'0 0.0
2017-May-26 18:59N 59°19' E 018°05'0 0.0
2017-May-26 18:26N 59°19' E 018°05'0 0.0
2017-May-26 17:56N 59°19' E 018°05'0 0.0
2017-May-26 17:26N 59°19' E 018°05'0 0.0
2017-May-26 16:56N 59°19' E 018°05'0 0.0
2017-May-26 16:20N 59°19' E 018°05'0 0.0
2017-May-26 15:56N 59°19' E 018°05'0 0.0
2017-May-26 15:26N 59°19' E 018°05'0 0.0
2017-May-26 14:56N 59°19' E 018°05'0 0.0
2017-May-26 14:29N 59°19' E 018°05'0 0.0
2017-May-26 13:29N 59°19' E 018°05'0 0.0
2017-May-26 12:59N 59°19' E 018°05'0 0.0
2017-May-26 12:29N 59°19' E 018°05'0 0.0
2017-May-26 11:59N 59°19' E 018°05'0 0.0
2017-May-26 11:29N 59°19' E 018°05'0 0.0
2017-May-26 10:59N 59°19' E 018°05'0 0.0
2017-May-26 10:29N 59°19' E 018°05'0 0.0
2017-May-26 09:59N 59°19' E 018°05'0 0.0
2017-May-26 09:29N 59°19' E 018°05'0 0.0
2017-May-26 08:59N 59°19' E 018°05'0 0.0
2017-May-26 08:29N 59°19' E 018°05'0 0.0
2017-May-26 07:59N 59°19' E 018°05'0 0.0
2017-May-26 07:29N 59°19' E 018°05'0 0.0
2017-May-26 06:56N 59°19' E 018°05'0 0.0
2017-May-26 06:29N 59°19' E 018°05'0 0.0
2017-May-26 05:56N 59°19' E 018°05'0 0.0
2017-May-26 05:26N 59°19' E 018°05'0 0.0
2017-May-26 04:56N 59°19' E 018°05'0 0.0
2017-May-26 04:20N 59°19' E 018°05'0 0.0
2017-May-26 03:59N 59°19' E 018°05'0 0.0
2017-May-26 03:20N 59°19' E 018°05'0 0.0
2017-May-26 02:59N 59°19' E 018°05'0 0.0
2017-May-26 02:29N 59°19' E 018°05'0 0.0
2017-May-26 01:56N 59°19' E 018°05'0 0.0
2017-May-26 01:29N 59°19' E 018°05'0 0.0
2017-May-26 00:59N 59°19' E 018°05'0 0.0
2017-May-26 00:29N 59°19' E 018°05'0 0.0
2017-May-25 23:59N 59°19' E 018°05'0 0.0
2017-May-25 23:29N 59°19' E 018°05'0 0.0
2017-May-25 22:59N 59°19' E 018°05'0 0.0
2017-May-25 22:29N 59°19' E 018°05'0 0.0
2017-May-25 21:59N 59°19' E 018°05'0 0.0
2017-May-25 21:29N 59°19' E 018°05'0 0.0
2017-May-25 20:59N 59°19' E 018°05'0 0.0
2017-May-25 20:29N 59°19' E 018°05'0 0.0
2017-May-25 19:59N 59°19' E 018°05'0 0.0
2017-May-25 19:29N 59°19' E 018°05'0 0.0
2017-May-25 18:56N 59°19' E 018°05'0 0.0
2017-May-25 18:29N 59°19' E 018°05'0 0.0
2017-May-25 17:56N 59°19' E 018°05'0 0.0
2017-May-25 17:20N 59°19' E 018°05'0 0.0
2017-May-25 16:56N 59°19' E 018°05'0 0.0
2017-May-25 16:20N 59°19' E 018°05'0 0.0
2017-May-25 15:56N 59°19' E 018°05'0 0.0
2017-May-25 15:26N 59°19' E 018°05'0 0.0
2017-May-25 14:44N 59°19' E 018°05'0 0.0
2017-May-25 14:26N 59°19' E 018°05'0 0.0
2017-May-25 13:26N 59°19' E 018°05'0 0.0
2017-May-25 12:56N 59°19' E 018°05'0 0.0
2017-May-25 12:26N 59°19' E 018°05'0 0.0
2017-May-25 11:56N 59°19' E 018°05'0 0.0
2017-May-25 11:26N 59°19' E 018°05'0 0.0
2017-May-25 10:56N 59°19' E 018°05'0 0.0
2017-May-25 10:20N 59°19' E 018°05'0 0.0
2017-May-25 09:56N 59°19' E 018°05'0 0.0
2017-May-25 09:26N 59°19' E 018°05'0 0.0
2017-May-25 08:56N 59°19' E 018°05'0 0.0
2017-May-25 08:26N 59°19' E 018°05'0 0.0
2017-May-25 07:56N 59°19' E 018°05'0 0.0
2017-May-25 07:20N 59°19' E 018°05'0 0.0
2017-May-25 06:56N 59°19' E 018°05'0 0.0
2017-May-25 06:20N 59°19' E 018°05'0 0.0
2017-May-25 05:50N 59°19' E 018°05'0 0.0
2017-May-25 05:26N 59°19' E 018°05'0 0.0
2017-May-25 04:56N 59°19' E 018°05'0 0.0
2017-May-25 04:26N 59°19' E 018°05'0 0.0
2017-May-25 03:56N 59°19' E 018°05'0 0.0
2017-May-25 03:26N 59°19' E 018°05'0 0.0
2017-May-25 02:59N 59°19' E 018°05'0 0.0
2017-May-25 02:26N 59°19' E 018°05'0 0.0
2017-May-25 01:59N 59°19' E 018°05'0 0.0
2017-May-25 01:29N 59°19' E 018°05'0 0.0
2017-May-25 00:59N 59°19' E 018°05'0 0.0
2017-May-25 00:29N 59°19' E 018°05'0 0.0
2017-May-24 23:59N 59°19' E 018°05'0 0.0
2017-May-24 23:29N 59°19' E 018°05'0 0.0
2017-May-24 22:59N 59°19' E 018°05'0 0.0
2017-May-24 22:29N 59°19' E 018°05'0 0.0
2017-May-24 21:59N 59°19' E 018°05'0 0.0
2017-May-24 21:29N 59°19' E 018°05'0 0.0
2017-May-24 20:56N 59°19' E 018°05'0 0.0
2017-May-24 20:29N 59°19' E 018°05'0 0.0
2017-May-24 19:59N 59°19' E 018°05'0 0.0
2017-May-24 19:20N 59°19' E 018°05'0 0.0
2017-May-24 18:59N 59°19' E 018°05'0 0.0
2017-May-24 18:26N 59°19' E 018°05'0 0.0
2017-May-24 17:44N 59°19' E 018°05'0 0.0
2017-May-24 17:26N 59°19' E 018°05'0 0.0
2017-May-24 16:56N 59°19' E 018°05'0 0.0
2017-May-24 16:26N 59°19' E 018°05'0 0.0
2017-May-24 15:56N 59°19' E 018°05'0 0.0
2017-May-24 15:26N 59°19' E 018°05'0 0.0
2017-May-24 14:56N 59°19' E 018°05'0 0.0
2017-May-24 14:26N 59°19' E 018°05'0 0.0
2017-May-24 13:26N 59°19' E 018°05'0 0.0
2017-May-24 12:56N 59°19' E 018°05'0 0.0
2017-May-24 12:26N 59°19' E 018°05'0 0.0
2017-May-24 11:44N 59°19' E 018°05'0 0.0
2017-May-24 11:20N 59°19' E 018°05'0 0.0
2017-May-24 10:56N 59°19' E 018°05'0 0.0
2017-May-24 10:20N 59°19' E 018°05'0 0.0
2017-May-24 09:56N 59°19' E 018°05'0 0.0
2017-May-24 09:26N 59°19' E 018°05'0 0.0
2017-May-24 08:56N 59°19' E 018°05'0 0.0
2017-May-24 08:26N 59°19' E 018°05'0 0.0
2017-May-24 07:56N 59°19' E 018°05'0 0.0
2017-May-24 07:26N 59°19' E 018°05'0 0.0
2017-May-24 06:56N 59°19' E 018°05'0 0.0
2017-May-24 06:26N 59°19' E 018°05'0 0.0
2017-May-24 05:56N 59°19' E 018°05'0 0.0
2017-May-24 05:20N 59°19' E 018°05'0 0.0
2017-May-24 04:50N 59°19' E 018°05'0 0.0
2017-May-24 04:26N 59°19' E 018°05'0 0.0
2017-May-24 03:56N 59°19' E 018°05'0 0.0
2017-May-24 03:26N 59°19' E 018°05'0 0.0
2017-May-24 02:44N 59°19' E 018°05'0 0.0
2017-May-24 02:26N 59°19' E 018°05'0 0.0
2017-May-24 01:50N 59°19' E 018°05'0 0.0
2017-May-24 01:26N 59°19' E 018°05'0 0.0
2017-May-24 00:50N 59°19' E 018°05'0 0.0
2017-May-24 00:26N 59°19' E 018°05'0 0.0
2017-May-23 23:56N 59°19' E 018°05'0 0.0
2017-May-23 23:26N 59°19' E 018°05'0 0.0
2017-May-23 22:56N 59°19' E 018°05'0 0.0
2017-May-23 22:26N 59°19' E 018°05'0 0.0
2017-May-23 21:56N 59°19' E 018°05'0 0.0
2017-May-23 21:29N 59°19' E 018°05'0 0.0
2017-May-23 20:56N 59°19' E 018°05'0 0.0
2017-May-23 20:26N 59°19' E 018°05'0 0.0
2017-May-23 19:56N 59°19' E 018°05'0 0.0
2017-May-23 19:26N 59°19' E 018°05'0 0.0
2017-May-23 18:53N 59°19' E 018°05'0 0.0
2017-May-23 18:26N 59°19' E 018°05'0 0.0
2017-May-23 17:56N 59°19' E 018°05'0 0.0
2017-May-23 17:26N 59°19' E 018°05'0 0.0
2017-May-23 16:56N 59°19' E 018°05'0 0.0
2017-May-23 16:26N 59°19' E 018°05'0 0.0
2017-May-23 15:56N 59°19' E 018°05'0 0.0
2017-May-23 15:23N 59°19' E 018°05'0 0.0
2017-May-23 14:59N 59°19' E 018°05'0 0.0
2017-May-23 13:56N 59°19' E 018°05'0 0.0
2017-May-23 13:26N 59°19' E 018°05'0 0.0
2017-May-23 12:26N 59°19' E 018°05'0 0.0
2017-May-23 11:56N 59°19' E 018°05'0 0.0
2017-May-23 11:20N 59°19' E 018°05'0 0.0
2017-May-23 10:56N 59°19' E 018°05'0 0.0
2017-May-23 10:20N 59°19' E 018°05'0 0.0
2017-May-23 09:56N 59°19' E 018°05'0 0.0
2017-May-23 09:26N 59°19' E 018°05'0 0.0
2017-May-23 08:59N 59°19' E 018°05'0 0.0
2017-May-23 08:26N 59°19' E 018°05'0 0.0
2017-May-23 07:56N 59°19' E 018°05'0 0.0
2017-May-23 07:26N 59°19' E 018°05'0 0.0
2017-May-23 06:02N 59°19' E 018°05'0 0.0
2017-May-23 05:56N 59°19' E 018°05'0 0.0
2017-May-23 05:20N 59°19' E 018°05'0 0.0
2017-May-23 04:56N 59°19' E 018°05'0 0.0
2017-May-23 04:14N 59°19' E 018°05'0 0.0
2017-May-23 03:56N 59°19' E 018°05'0 0.0
2017-May-23 03:26N 59°19' E 018°05'0 0.0
2017-May-23 02:56N 59°19' E 018°05'0 0.0
2017-May-23 02:26N 59°19' E 018°05'0 0.0
2017-May-23 01:56N 59°19' E 018°05'0 0.0
2017-May-23 01:26N 59°19' E 018°05'0 0.0
2017-May-23 00:56N 59°19' E 018°05'0 0.0
2017-May-23 00:26N 59°19' E 018°05'0 0.0
2017-May-22 23:56N 59°19' E 018°05'0 0.0
2017-May-22 23:26N 59°19' E 018°05'0 0.0
2017-May-22 22:56N 59°19' E 018°05'0 0.0
2017-May-22 22:26N 59°19' E 018°05'0 0.0
2017-May-22 21:44N 59°19' E 018°05'0 0.0
2017-May-22 21:26N 59°19' E 018°05'0 0.0
2017-May-22 20:50N 59°19' E 018°05'0 0.0
2017-May-22 20:26N 59°19' E 018°05'0 0.0
2017-May-22 19:56N 59°19' E 018°05'0 0.0
2017-May-22 19:26N 59°19' E 018°05'0 0.0
2017-May-22 18:56N 59°19' E 018°05'0 0.0
2017-May-22 18:26N 59°19' E 018°05'0 0.0
2017-May-22 17:56N 59°19' E 018°05'0 0.0
2017-May-22 17:20N 59°19' E 018°05'0 0.0
2017-May-22 16:56N 59°19' E 018°05'0 0.0
2017-May-22 16:29N 59°19' E 018°05'0 0.0
2017-May-22 15:50N 59°19' E 018°05'0 0.0
2017-May-22 15:29N 59°19' E 018°05'0 0.0
2017-May-22 14:59N 59°19' E 018°05'0 0.0
2017-May-22 13:59N 59°19' E 018°05'0 0.0
2017-May-22 13:29N 59°19' E 018°05'0 0.0
2017-May-22 12:59N 59°19' E 018°05'0 0.0
2017-May-22 12:29N 59°19' E 018°05'0 0.0
2017-May-22 11:59N 59°19' E 018°05'0 0.0
2017-May-22 11:29N 59°19' E 018°05'0 0.0
2017-May-22 10:59N 59°19' E 018°05'0 0.0
2017-May-22 10:29N 59°19' E 018°05'0 0.0
2017-May-22 09:59N 59°19' E 018°05'0 0.0
2017-May-22 09:29N 59°19' E 018°05'0 0.0
2017-May-22 08:59N 59°19' E 018°05'0 0.0
2017-May-22 08:29N 59°19' E 018°05'0 0.0
2017-May-22 07:59N 59°19' E 018°05'0 0.0
2017-May-22 07:29N 59°19' E 018°05'0 0.0
2017-May-22 06:59N 59°19' E 018°05'0 0.0
2017-May-22 06:23N 59°19' E 018°05'0 0.0
2017-May-22 05:56N 59°19' E 018°05'0 0.0
2017-May-22 05:26N 59°19' E 018°05'0 0.0
2017-May-22 04:56N 59°19' E 018°05'0 0.0
2017-May-22 04:29N 59°19' E 018°05'0 0.0
2017-May-22 03:56N 59°19' E 018°05'0 0.0
2017-May-22 03:29N 59°19' E 018°05'0 0.0
2017-May-22 02:53N 59°19' E 018°05'0 0.0
2017-May-22 02:29N 59°19' E 018°05'0 0.0
2017-May-22 01:59N 59°19' E 018°05'0 0.0
2017-May-22 01:29N 59°19' E 018°05'0 0.0
2017-May-22 00:59N 59°19' E 018°05'0 0.0
2017-May-22 00:29N 59°19' E 018°05'0 0.0
2017-May-21 23:59N 59°19' E 018°05'0 0.0
2017-May-21 23:29N 59°19' E 018°05'0 0.0
2017-May-21 22:59N 59°19' E 018°05'0 0.0
2017-May-21 22:29N 59°19' E 018°05'0 0.0
2017-May-21 21:59N 59°19' E 018°05'0 0.0
2017-May-21 21:26N 59°19' E 018°05'0 0.0
2017-May-21 20:59N 59°19' E 018°05'0 0.0
2017-May-21 20:29N 59°19' E 018°05'0 0.0
2017-May-21 19:59N 59°19' E 018°05'0 0.0
2017-May-21 19:29N 59°19' E 018°05'0 0.0
2017-May-21 18:59N 59°19' E 018°05'0 0.0
2017-May-21 18:29N 59°19' E 018°05'0 0.0
2017-May-21 17:56N 59°19' E 018°05'0 0.0
2017-May-21 17:26N 59°19' E 018°05'0 0.0
2017-May-21 16:56N 59°19' E 018°05'0 0.0
2017-May-21 16:26N 59°19' E 018°05'0 0.0
2017-May-21 15:56N 59°19' E 018°05'0 0.0
2017-May-21 15:26N 59°19' E 018°05'0 0.0
2017-May-21 14:56N 59°19' E 018°05'0 0.0
2017-May-21 13:56N 59°19' E 018°05'0 0.0
2017-May-21 13:26N 59°19' E 018°05'0 0.0
2017-May-21 12:56N 59°19' E 018°05'0 0.0
2017-May-21 12:29N 59°19' E 018°05'0 0.0
2017-May-21 11:56N 59°19' E 018°05'0 0.0
2017-May-21 11:26N 59°19' E 018°05'0 0.0
2017-May-21 10:50N 59°19' E 018°05'0 0.0
2017-May-21 10:26N 59°19' E 018°05'0 0.0
2017-May-21 09:56N 59°19' E 018°05'0 0.0
2017-May-21 09:26N 59°19' E 018°05'0 0.0
2017-May-21 08:59N 59°19' E 018°05'0 0.0
2017-May-21 08:26N 59°19' E 018°05'0 0.0
2017-May-21 07:50N 59°19' E 018°05'0 0.0
2017-May-21 07:20N 59°19' E 018°05'0 0.0
2017-May-21 06:50N 59°19' E 018°05'0 0.0
2017-May-21 06:26N 59°19' E 018°05'0 0.0
2017-May-21 05:56N 59°19' E 018°05'0 0.0
2017-May-21 05:14N 59°19' E 018°05'0 0.0
2017-May-21 04:56N 59°19' E 018°05'0 0.0
2017-May-21 04:26N 59°19' E 018°05'0 0.0
2017-May-21 03:56N 59°19' E 018°05'0 0.0
2017-May-21 03:29N 59°19' E 018°05'0 0.0
2017-May-21 02:56N 59°19' E 018°05'0 0.0
2017-May-21 02:26N 59°19' E 018°05'0 0.0
2017-May-21 01:59N 59°19' E 018°05'0 0.0
2017-May-21 01:29N 59°19' E 018°05'0 0.0
2017-May-21 00:59N 59°19' E 018°05'0 0.0
2017-May-21 00:29N 59°19' E 018°05'0 0.0
2017-May-20 23:59N 59°19' E 018°05'0 0.0
2017-May-20 23:29N 59°19' E 018°05'0 0.0
2017-May-20 22:59N 59°19' E 018°05'0 0.0
2017-May-20 22:29N 59°19' E 018°05'0 0.0
2017-May-20 21:56N 59°19' E 018°05'0 0.0
2017-May-20 21:26N 59°19' E 018°05'0 0.0
2017-May-20 20:56N 59°19' E 018°05'0 0.0
2017-May-20 20:29N 59°19' E 018°05'0 0.0
2017-May-20 19:59N 59°19' E 018°05'0 0.0
2017-May-20 19:29N 59°19' E 018°05'0 0.0
2017-May-20 18:59N 59°19' E 018°05'0 0.0
2017-May-20 18:29N 59°19' E 018°05'0 0.0
2017-May-20 17:59N 59°19' E 018°05'0 0.0
2017-May-20 17:26N 59°19' E 018°05'0 0.0
2017-May-20 16:50N 59°19' E 018°05'0 0.0
2017-May-20 16:26N 59°19' E 018°05'0 0.0
2017-May-20 15:56N 59°19' E 018°05'0 0.0
2017-May-20 15:26N 59°19' E 018°05'0 0.0
2017-May-20 14:44N 59°19' E 018°05'0 0.0
2017-May-20 14:26N 59°19' E 018°05'0 0.0
2017-May-20 13:26N 59°19' E 018°05'0 0.0
2017-May-20 12:59N 59°19' E 018°05'0 0.0
2017-May-20 12:26N 59°19' E 018°05'0 0.0
2017-May-20 11:59N 59°19' E 018°05'0 0.0
2017-May-20 11:23N 59°19' E 018°05'0 0.0
2017-May-20 10:56N 59°19' E 018°05'0 0.0
2017-May-20 10:26N 59°19' E 018°05'0 0.1
2017-May-20 09:56N 59°19' E 018°05'0 0.1
2017-May-20 09:29N 59°19' E 018°05'0 0.0
2017-May-20 08:56N 59°19' E 018°05'0 0.0
2017-May-20 08:26N 59°19' E 018°05'0 0.0
2017-May-20 07:56N 59°19' E 018°05'0 0.0
2017-May-20 06:20N 59°19' E 018°05'0 0.0
2017-May-20 03:47N 59°19' E 018°05'0 0.0
2017-May-20 03:08N 59°19' E 018°05'0 0.0
2017-May-20 02:59N 59°19' E 018°05'0 0.0
2017-May-20 02:29N 59°19' E 018°05'0 0.0
2017-May-20 01:59N 59°19' E 018°05'0 0.0
2017-May-20 01:29N 59°19' E 018°05'0 0.0
2017-May-20 00:59N 59°19' E 018°05'0 0.0
2017-May-20 00:29N 59°19' E 018°05'0 0.0
2017-May-19 23:59N 59°19' E 018°05'0 0.0
2017-May-19 23:29N 59°19' E 018°05'0 0.0
2017-May-19 22:59N 59°19' E 018°05'0 0.0
2017-May-19 22:29N 59°19' E 018°05'0 0.0
2017-May-19 21:59N 59°19' E 018°05'0 0.0
2017-May-19 21:29N 59°19' E 018°05'0 0.0
2017-May-19 20:59N 59°19' E 018°05'0 0.0
2017-May-19 20:29N 59°19' E 018°05'0 0.0
2017-May-19 19:59N 59°19' E 018°05'0 0.0
2017-May-19 19:29N 59°19' E 018°05'0 0.0
2017-May-19 18:59N 59°19' E 018°05'0 0.0
2017-May-19 18:26N 59°19' E 018°05'0 0.0
2017-May-19 17:56N 59°19' E 018°05'0 0.0
2017-May-19 17:26N 59°19' E 018°05'0 0.0
2017-May-19 16:50N 59°19' E 018°05'0 0.0
2017-May-19 16:26N 59°19' E 018°05'0 0.0
2017-May-19 15:56N 59°19' E 018°05'0 0.0
2017-May-19 15:29N 59°19' E 018°05'0 0.0
2017-May-19 14:56N 59°19' E 018°05'0 0.0
2017-May-19 13:59N 59°19' E 018°05'0 0.0
2017-May-19 13:29N 59°19' E 018°05'0 0.0
2017-May-19 12:59N 59°19' E 018°05'0 0.0
2017-May-19 12:29N 59°19' E 018°05'0 0.0
2017-May-19 11:59N 59°19' E 018°05'0 0.0
2017-May-19 11:29N 59°19' E 018°05'0 0.0
2017-May-19 10:59N 59°19' E 018°05'0 0.0
2017-May-19 10:29N 59°19' E 018°05'0 0.0
2017-May-19 09:59N 59°19' E 018°05'0 0.0
2017-May-19 09:29N 59°19' E 018°05'0 0.0
2017-May-19 08:59N 59°19' E 018°05'0 0.0
2017-May-19 08:29N 59°19' E 018°05'0 0.0
2017-May-19 07:59N 59°19' E 018°05'0 0.0
2017-May-19 07:29N 59°19' E 018°05'0 0.0
2017-May-19 06:59N 59°19' E 018°05'0 0.0
2017-May-19 06:26N 59°19' E 018°05'0 0.0
2017-May-19 05:59N 59°19' E 018°05'0 0.0
2017-May-19 05:26N 59°19' E 018°05'0 0.0
2017-May-19 04:56N 59°19' E 018°05'0 0.0
2017-May-19 04:26N 59°19' E 018°05'0 0.0
2017-May-19 03:50N 59°19' E 018°05'0 0.0
2017-May-19 03:29N 59°19' E 018°05'0 0.0
2017-May-19 02:59N 59°19' E 018°05'0 0.0
2017-May-19 02:29N 59°19' E 018°05'0 0.0
2017-May-19 01:59N 59°19' E 018°05'0 0.0
2017-May-19 01:29N 59°19' E 018°05'0 0.0
2017-May-19 00:59N 59°19' E 018°05'0 0.0
2017-May-19 00:29N 59°19' E 018°05'0 0.0
2017-May-18 23:59N 59°19' E 018°05'0 0.0
2017-May-18 23:29N 59°19' E 018°05'0 0.0
2017-May-18 22:59N 59°19' E 018°05'0 0.0
2017-May-18 22:29N 59°19' E 018°05'0 0.0
2017-May-18 21:59N 59°19' E 018°05'0 0.0
2017-May-18 21:29N 59°19' E 018°05'0 0.0
2017-May-18 20:56N 59°19' E 018°05'  
Track history (hours):
 
Tides and Currents Weather Stations Pressure Air Temp Water Temp Dewpoint Dewpoint Depression Visibility Wind Speed Wind Dir Waves Ship Positions

Birger Jarl

Last reported at 2017-May-28 20:30 UTC. Time now 2017-May-28 20:34 UTC.
Position N 59°19' E 018°05'.

; draft 5.1 m.

Type: Passenger vessel. MMSI: 265878000.

Date/timePositionNaut miles runAvg speedWind from/ knotsBaromVisibWave heightAir tempDewpointWater temp
2017-May-28 20:30N 59°19' E 018°05'0 0.0
2017-May-28 20:00N 59°19' E 018°05'0 0.0
2017-May-28 19:30N 59°19' E 018°05'0 0.0
2017-May-28 19:00N 59°19' E 018°05'0 0.0
2017-May-28 18:30N 59°19' E 018°05'0 0.0
2017-May-28 18:00N 59°19' E 018°05'0 0.0
2017-May-28 17:30N 59°19' E 018°05'0 0.0
2017-May-28 17:00N 59°19' E 018°05'0 0.0
2017-May-28 16:30N 59°19' E 018°05'0 0.0
2017-May-28 16:00N 59°19' E 018°05'0 0.0
2017-May-28 15:30N 59°19' E 018°05'0 0.0
2017-May-28 15:00N 59°19' E 018°05'0 0.0
2017-May-28 14:00N 59°19' E 018°05'0 0.0
2017-May-28 13:31N 59°19' E 018°05'0 0.0
2017-May-28 13:00N 59°19' E 018°05'0 0.7
2017-May-28 12:30N 59°19' E 018°06'2 4.9
2017-May-28 12:00N 59°19' E 018°10'4 8.2
2017-May-28 11:30N 59°22' E 018°16'0 1.0
2017-May-28 11:00N 59°22' E 018°16'510.2
2017-May-28 10:30N 59°19' E 018°08'1 2.8
2017-May-28 10:00N 59°19' E 018°05'0 0.0
2017-May-28 09:30N 59°19' E 018°05'0 0.0
2017-May-28 09:00N 59°19' E 018°05'0 0.0
2017-May-28 08:30N 59°19' E 018°05'0 0.0
2017-May-28 08:01N 59°19' E 018°05'0 0.0
2017-May-28 07:30N 59°19' E 018°05'0 0.0
2017-May-28 07:01N 59°19' E 018°05'0 0.0
2017-May-28 06:30N 59°19' E 018°05'0 0.0
2017-May-28 06:00N 59°19' E 018°05'0 0.0
2017-May-28 05:31N 59°19' E 018°05'0 0.0
2017-May-28 05:00N 59°19' E 018°05'0 0.0
2017-May-28 04:30N 59°19' E 018°05'0 0.0
2017-May-28 04:01N 59°19' E 018°05'0 0.0
2017-May-28 03:30N 59°19' E 018°05'0 0.0
2017-May-28 03:00N 59°19' E 018°05'0 0.0
2017-May-28 02:31N 59°19' E 018°05'0 0.0
2017-May-28 02:01N 59°19' E 018°05'0 0.0
2017-May-28 01:30N 59°19' E 018°05'0 0.0
2017-May-28 01:01N 59°19' E 018°05'0 0.0
2017-May-28 00:30N 59°19' E 018°05'0 0.0
2017-May-28 00:01N 59°19' E 018°05'0 0.0
2017-May-27 23:30N 59°19' E 018°05'0 0.0
2017-May-27 23:00N 59°19' E 018°05'0 0.0
2017-May-27 22:31N 59°19' E 018°05'0 0.0
2017-May-27 22:01N 59°19' E 018°05'0 0.0
2017-May-27 21:31N 59°19' E 018°05'0 0.0
2017-May-27 21:00N 59°19' E 018°05'0 0.0
2017-May-27 20:31N 59°19' E 018°05'0 0.0
2017-May-27 20:01N 59°19' E 018°05'0 0.0
2017-May-27 19:31N 59°19' E 018°05'0 0.0
2017-May-27 19:01N 59°19' E 018°05'0 0.0
2017-May-27 18:31N 59°19' E 018°05'0 0.0
2017-May-27 18:00N 59°19' E 018°05'0 0.0
2017-May-27 17:30N 59°19' E 018°05'0 0.0
2017-May-27 17:00N 59°19' E 018°05'0 0.0
2017-May-27 16:30N 59°19' E 018°05'0 0.0
2017-May-27 16:00N 59°19' E 018°05'0 0.0
2017-May-27 15:30N 59°19' E 018°05'0 0.0
2017-May-27 15:00N 59°19' E 018°05'0 0.0
2017-May-27 14:00N 59°19' E 018°05'0 0.0
2017-May-27 13:31N 59°19' E 018°05'0 0.0
2017-May-27 13:00N 59°19' E 018°05'3 5.6
2017-May-27 12:31N 59°19' E 018°10'4 7.3
2017-May-27 12:01N 59°22' E 018°16'5 9.7
2017-May-27 11:30N 59°19' E 018°08'2 3.1
2017-May-27 11:01N 59°19' E 018°05'0 0.0
2017-May-27 10:29N 59°19' E 018°05'0 0.0
2017-May-27 09:59N 59°19' E 018°05'0 0.0
2017-May-27 09:29N 59°19' E 018°05'0 0.0
2017-May-27 08:59N 59°19' E 018°05'0 0.0
2017-May-27 08:29N 59°19' E 018°05'0 0.0
2017-May-27 07:59N 59°19' E 018°05'0 0.0
2017-May-27 07:29N 59°19' E 018°05'0 0.0
2017-May-27 06:59N 59°19' E 018°05'0 0.0
2017-May-27 06:29N 59°19' E 018°05'0 0.0
2017-May-27 05:56N 59°19' E 018°05'0 0.0
2017-May-27 05:26N 59°19' E 018°05'0 0.0
2017-May-27 04:56N 59°19' E 018°05'0 0.0
2017-May-27 04:26N 59°19' E 018°05'0 0.0
2017-May-27 03:56N 59°19' E 018°05'0 0.0
2017-May-27 03:26N 59°19' E 018°05'0 0.0
2017-May-27 02:59N 59°19' E 018°05'0 0.0
2017-May-27 02:26N 59°19' E 018°05'0 0.0
2017-May-27 01:59N 59°19' E 018°05'0 0.0
2017-May-27 01:29N 59°19' E 018°05'0 0.0
2017-May-27 00:59N 59°19' E 018°05'0 0.0
2017-May-27 00:29N 59°19' E 018°05'0 0.0
2017-May-26 23:59N 59°19' E 018°05'0 0.0
2017-May-26 23:29N 59°19' E 018°05'0 0.0
2017-May-26 22:59N 59°19' E 018°05'0 0.0
2017-May-26 22:29N 59°19' E 018°05'0 0.0
2017-May-26 21:59N 59°19' E 018°05'0 0.0
2017-May-26 21:23N 59°19' E 018°05'0 0.0
2017-May-26 20:59N 59°19' E 018°05'0 0.0
2017-May-26 20:29N 59°19' E 018°05'0 0.0
2017-May-26 19:56N 59°19' E 018°05'0 0.0
2017-May-26 19:29N 59°19' E 018°05'0 0.0
2017-May-26 18:59N 59°19' E 018°05'0 0.0
2017-May-26 18:26N 59°19' E 018°05'0 0.0
2017-May-26 17:56N 59°19' E 018°05'0 0.0
2017-May-26 17:26N 59°19' E 018°05'0 0.0
2017-May-26 16:56N 59°19' E 018°05'0 0.0
2017-May-26 16:20N 59°19' E 018°05'0 0.0
2017-May-26 15:56N 59°19' E 018°05'0 0.0
2017-May-26 15:26N 59°19' E 018°05'0 0.0
2017-May-26 14:56N 59°19' E 018°05'0 0.0
2017-May-26 14:29N 59°19' E 018°05'0 0.0
2017-May-26 13:29N 59°19' E 018°05'0 0.0
2017-May-26 12:59N 59°19' E 018°05'0 0.0
2017-May-26 12:29N 59°19' E 018°05'0 0.0
2017-May-26 11:59N 59°19' E 018°05'0 0.0
2017-May-26 11:29N 59°19' E 018°05'0 0.0
2017-May-26 10:59N 59°19' E 018°05'0 0.0
2017-May-26 10:29N 59°19' E 018°05'0 0.0
2017-May-26 09:59N 59°19' E 018°05'0 0.0
2017-May-26 09:29N 59°19' E 018°05'0 0.0
2017-May-26 08:59N 59°19' E 018°05'0 0.0
2017-May-26 08:29N 59°19' E 018°05'0 0.0
2017-May-26 07:59N 59°19' E 018°05'0 0.0
2017-May-26 07:29N 59°19' E 018°05'0 0.0
2017-May-26 06:56N 59°19' E 018°05'0 0.0
2017-May-26 06:29N 59°19' E 018°05'0 0.0
2017-May-26 05:56N 59°19' E 018°05'0 0.0
2017-May-26 05:26N 59°19' E 018°05'0 0.0
2017-May-26 04:56N 59°19' E 018°05'0 0.0
2017-May-26 04:20N 59°19' E 018°05'0 0.0
2017-May-26 03:59N 59°19' E 018°05'0 0.0
2017-May-26 03:20N 59°19' E 018°05'0 0.0
2017-May-26 02:59N 59°19' E 018°05'0 0.0
2017-May-26 02:29N 59°19' E 018°05'0 0.0
2017-May-26 01:56N 59°19' E 018°05'0 0.0
2017-May-26 01:29N 59°19' E 018°05'0 0.0
2017-May-26 00:59N 59°19' E 018°05'0 0.0
2017-May-26 00:29N 59°19' E 018°05'0 0.0
2017-May-25 23:59N 59°19' E 018°05'0 0.0
2017-May-25 23:29N 59°19' E 018°05'0 0.0
2017-May-25 22:59N 59°19' E 018°05'0 0.0
2017-May-25 22:29N 59°19' E 018°05'0 0.0
2017-May-25 21:59N 59°19' E 018°05'0 0.0
2017-May-25 21:29N 59°19' E 018°05'0 0.0
2017-May-25 20:59N 59°19' E 018°05'0 0.0
2017-May-25 20:29N 59°19' E 018°05'0 0.0
2017-May-25 19:59N 59°19' E 018°05'0 0.0
2017-May-25 19:29N 59°19' E 018°05'0 0.0
2017-May-25 18:56N 59°19' E 018°05'0 0.0
2017-May-25 18:29N 59°19' E 018°05'0 0.0
2017-May-25 17:56N 59°19' E 018°05'0 0.0
2017-May-25 17:20N 59°19' E 018°05'0 0.0
2017-May-25 16:56N 59°19' E 018°05'0 0.0
2017-May-25 16:20N 59°19' E 018°05'0 0.0
2017-May-25 15:56N 59°19' E 018°05'0 0.0
2017-May-25 15:26N 59°19' E 018°05'0 0.0
2017-May-25 14:44N 59°19' E 018°05'0 0.0
2017-May-25 14:26N 59°19' E 018°05'0 0.0
2017-May-25 13:26N 59°19' E 018°05'0 0.0
2017-May-25 12:56N 59°19' E 018°05'0 0.0
2017-May-25 12:26N 59°19' E 018°05'0 0.0
2017-May-25 11:56N 59°19' E 018°05'0 0.0
2017-May-25 11:26N 59°19' E 018°05'0 0.0
2017-May-25 10:56N 59°19' E 018°05'0 0.0
2017-May-25 10:20N 59°19' E 018°05'0 0.0
2017-May-25 09:56N 59°19' E 018°05'0 0.0
2017-May-25 09:26N 59°19' E 018°05'0 0.0
2017-May-25 08:56N 59°19' E 018°05'0 0.0
2017-May-25 08:26N 59°19' E 018°05'0 0.0
2017-May-25 07:56N 59°19' E 018°05'0 0.0
2017-May-25 07:20N 59°19' E 018°05'0 0.0
2017-May-25 06:56N 59°19' E 018°05'0 0.0
2017-May-25 06:20N 59°19' E 018°05'0 0.0
2017-May-25 05:50N 59°19' E 018°05'0 0.0
2017-May-25 05:26N 59°19' E 018°05'0 0.0
2017-May-25 04:56N 59°19' E 018°05'0 0.0
2017-May-25 04:26N 59°19' E 018°05'0 0.0
2017-May-25 03:56N 59°19' E 018°05'0 0.0
2017-May-25 03:26N 59°19' E 018°05'0 0.0
2017-May-25 02:59N 59°19' E 018°05'0 0.0
2017-May-25 02:26N 59°19' E 018°05'0 0.0
2017-May-25 01:59N 59°19' E 018°05'0 0.0
2017-May-25 01:29N 59°19' E 018°05'0 0.0
2017-May-25 00:59N 59°19' E 018°05'0 0.0
2017-May-25 00:29N 59°19' E 018°05'0 0.0
2017-May-24 23:59N 59°19' E 018°05'0 0.0
2017-May-24 23:29N 59°19' E 018°05'0 0.0
2017-May-24 22:59N 59°19' E 018°05'0 0.0
2017-May-24 22:29N 59°19' E 018°05'0 0.0
2017-May-24 21:59N 59°19' E 018°05'0 0.0
2017-May-24 21:29N 59°19' E 018°05'0 0.0
2017-May-24 20:56N 59°19' E 018°05'0 0.0
2017-May-24 20:29N 59°19' E 018°05'0 0.0
2017-May-24 19:59N 59°19' E 018°05'0 0.0
2017-May-24 19:20N 59°19' E 018°05'0 0.0
2017-May-24 18:59N 59°19' E 018°05'0 0.0
2017-May-24 18:26N 59°19' E 018°05'0 0.0
2017-May-24 17:44N 59°19' E 018°05'0 0.0
2017-May-24 17:26N 59°19' E 018°05'0 0.0
2017-May-24 16:56N 59°19' E 018°05'0 0.0
2017-May-24 16:26N 59°19' E 018°05'0 0.0
2017-May-24 15:56N 59°19' E 018°05'0 0.0
2017-May-24 15:26N 59°19' E 018°05'0 0.0
2017-May-24 14:56N 59°19' E 018°05'0 0.0
2017-May-24 14:26N 59°19' E 018°05'0 0.0
2017-May-24 13:26N 59°19' E 018°05'0 0.0
2017-May-24 12:56N 59°19' E 018°05'0 0.0
2017-May-24 12:26N 59°19' E 018°05'0 0.0
2017-May-24 11:44N 59°19' E 018°05'0 0.0
2017-May-24 11:20N 59°19' E 018°05'0 0.0
2017-May-24 10:56N 59°19' E 018°05'0 0.0
2017-May-24 10:20N 59°19' E 018°05'0 0.0
2017-May-24 09:56N 59°19' E 018°05'0 0.0
2017-May-24 09:26N 59°19' E 018°05'0 0.0
2017-May-24 08:56N 59°19' E 018°05'0 0.0
2017-May-24 08:26N 59°19' E 018°05'0 0.0
2017-May-24 07:56N 59°19' E 018°05'0 0.0
2017-May-24 07:26N 59°19' E 018°05'0 0.0
2017-May-24 06:56N 59°19' E 018°05'0 0.0
2017-May-24 06:26N 59°19' E 018°05'0 0.0
2017-May-24 05:56N 59°19' E 018°05'0 0.0
2017-May-24 05:20N 59°19' E 018°05'0 0.0
2017-May-24 04:50N 59°19' E 018°05'0 0.0
2017-May-24 04:26N 59°19' E 018°05'0 0.0
2017-May-24 03:56N 59°19' E 018°05'0 0.0
2017-May-24 03:26N 59°19' E 018°05'0 0.0
2017-May-24 02:44N 59°19' E 018°05'0 0.0
2017-May-24 02:26N 59°19' E 018°05'0 0.0
2017-May-24 01:50N 59°19' E 018°05'0 0.0
2017-May-24 01:26N 59°19' E 018°05'0 0.0
2017-May-24 00:50N 59°19' E 018°05'0 0.0
2017-May-24 00:26N 59°19' E 018°05'0 0.0
2017-May-23 23:56N 59°19' E 018°05'0 0.0
2017-May-23 23:26N 59°19' E 018°05'0 0.0
2017-May-23 22:56N 59°19' E 018°05'0 0.0
2017-May-23 22:26N 59°19' E 018°05'0 0.0
2017-May-23 21:56N 59°19' E 018°05'0 0.0
2017-May-23 21:29N 59°19' E 018°05'0 0.0
2017-May-23 20:56N 59°19' E 018°05'0 0.0
2017-May-23 20:26N 59°19' E 018°05'0 0.0
2017-May-23 19:56N 59°19' E 018°05'0 0.0
2017-May-23 19:26N 59°19' E 018°05'0 0.0
2017-May-23 18:53N 59°19' E 018°05'0 0.0
2017-May-23 18:26N 59°19' E 018°05'0 0.0
2017-May-23 17:56N 59°19' E 018°05'0 0.0
2017-May-23 17:26N 59°19' E 018°05'0 0.0
2017-May-23 16:56N 59°19' E 018°05'0 0.0
2017-May-23 16:26N 59°19' E 018°05'0 0.0
2017-May-23 15:56N 59°19' E 018°05'0 0.0
2017-May-23 15:23N 59°19' E 018°05'0 0.0
2017-May-23 14:59N 59°19' E 018°05'0 0.0
2017-May-23 13:56N 59°19' E 018°05'0 0.0
2017-May-23 13:26N 59°19' E 018°05'0 0.0
2017-May-23 12:26N 59°19' E 018°05'0 0.0
2017-May-23 11:56N 59°19' E 018°05'0 0.0
2017-May-23 11:20N 59°19' E 018°05'0 0.0
2017-May-23 10:56N 59°19' E 018°05'0 0.0
2017-May-23 10:20N 59°19' E 018°05'0 0.0
2017-May-23 09:56N 59°19' E 018°05'0 0.0
2017-May-23 09:26N 59°19' E 018°05'0 0.0
2017-May-23 08:59N 59°19' E 018°05'0 0.0
2017-May-23 08:26N 59°19' E 018°05'0 0.0
2017-May-23 07:56N 59°19' E 018°05'0 0.0
2017-May-23 07:26N 59°19' E 018°05'0 0.0
2017-May-23 06:02N 59°19' E 018°05'0 0.0
2017-May-23 05:56N 59°19' E 018°05'0 0.0
2017-May-23 05:20N 59°19' E 018°05'0 0.0
2017-May-23 04:56N 59°19' E 018°05'0 0.0
2017-May-23 04:14N 59°19' E 018°05'0 0.0
2017-May-23 03:56N 59°19' E 018°05'0 0.0
2017-May-23 03:26N 59°19' E 018°05'0 0.0
2017-May-23 02:56N 59°19' E 018°05'0 0.0
2017-May-23 02:26N 59°19' E 018°05'0 0.0
2017-May-23 01:56N 59°19' E 018°05'0 0.0
2017-May-23 01:26N 59°19' E 018°05'0 0.0
2017-May-23 00:56N 59°19' E 018°05'0 0.0
2017-May-23 00:26N 59°19' E 018°05'0 0.0
2017-May-22 23:56N 59°19' E 018°05'0 0.0
2017-May-22 23:26N 59°19' E 018°05'0 0.0
2017-May-22 22:56N 59°19' E 018°05'0 0.0
2017-May-22 22:26N 59°19' E 018°05'0 0.0
2017-May-22 21:44N 59°19' E 018°05'0 0.0
2017-May-22 21:26N 59°19' E 018°05'0 0.0
2017-May-22 20:50N 59°19' E 018°05'0 0.0
2017-May-22 20:26N 59°19' E 018°05'0 0.0
2017-May-22 19:56N 59°19' E 018°05'0 0.0
2017-May-22 19:26N 59°19' E 018°05'0 0.0
2017-May-22 18:56N 59°19' E 018°05'0 0.0
2017-May-22 18:26N 59°19' E 018°05'0 0.0
2017-May-22 17:56N 59°19' E 018°05'0 0.0
2017-May-22 17:20N 59°19' E 018°05'0 0.0
2017-May-22 16:56N 59°19' E 018°05'0 0.0
2017-May-22 16:29N 59°19' E 018°05'0 0.0
2017-May-22 15:50N 59°19' E 018°05'0 0.0
2017-May-22 15:29N 59°19' E 018°05'0 0.0
2017-May-22 14:59N 59°19' E 018°05'0 0.0
2017-May-22 13:59N 59°19' E 018°05'0 0.0
2017-May-22 13:29N 59°19' E 018°05'0 0.0
2017-May-22 12:59N 59°19' E 018°05'0 0.0
2017-May-22 12:29N 59°19' E 018°05'0 0.0
2017-May-22 11:59N 59°19' E 018°05'0 0.0
2017-May-22 11:29N 59°19' E 018°05'0 0.0
2017-May-22 10:59N 59°19' E 018°05'0 0.0
2017-May-22 10:29N 59°19' E 018°05'0 0.0
2017-May-22 09:59N 59°19' E 018°05'0 0.0
2017-May-22 09:29N 59°19' E 018°05'0 0.0
2017-May-22 08:59N 59°19' E 018°05'0 0.0
2017-May-22 08:29N 59°19' E 018°05'0 0.0
2017-May-22 07:59N 59°19' E 018°05'0 0.0
2017-May-22 07:29N 59°19' E 018°05'0 0.0
2017-May-22 06:59N 59°19' E 018°05'0 0.0
2017-May-22 06:23N 59°19' E 018°05'0 0.0
2017-May-22 05:56N 59°19' E 018°05'0 0.0
2017-May-22 05:26N 59°19' E 018°05'0 0.0
2017-May-22 04:56N 59°19' E 018°05'0 0.0
2017-May-22 04:29N 59°19' E 018°05'0 0.0
2017-May-22 03:56N 59°19' E 018°05'0 0.0
2017-May-22 03:29N 59°19' E 018°05'0 0.0
2017-May-22 02:53N 59°19' E 018°05'0 0.0
2017-May-22 02:29N 59°19' E 018°05'0 0.0
2017-May-22 01:59N 59°19' E 018°05'0 0.0
2017-May-22 01:29N 59°19' E 018°05'0 0.0
2017-May-22 00:59N 59°19' E 018°05'0 0.0
2017-May-22 00:29N 59°19' E 018°05'0 0.0
2017-May-21 23:59N 59°19' E 018°05'0 0.0
2017-May-21 23:29N 59°19' E 018°05'0 0.0
2017-May-21 22:59N 59°19' E 018°05'0 0.0
2017-May-21 22:29N 59°19' E 018°05'0 0.0
2017-May-21 21:59N 59°19' E 018°05'0 0.0
2017-May-21 21:26N 59°19' E 018°05'0 0.0
2017-May-21 20:59N 59°19' E 018°05'0 0.0
2017-May-21 20:29N 59°19' E 018°05'0 0.0
2017-May-21 19:59N 59°19' E 018°05'0 0.0
2017-May-21 19:29N 59°19' E 018°05'0 0.0
2017-May-21 18:59N 59°19' E 018°05'0 0.0
2017-May-21 18:29N 59°19' E 018°05'0 0.0
2017-May-21 17:56N 59°19' E 018°05'0 0.0
2017-May-21 17:26N 59°19' E 018°05'0 0.0
2017-May-21 16:56N 59°19' E 018°05'0 0.0
2017-May-21 16:26N 59°19' E 018°05'0 0.0
2017-May-21 15:56N 59°19' E 018°05'0 0.0
2017-May-21 15:26N 59°19' E 018°05'0 0.0
2017-May-21 14:56N 59°19' E 018°05'0 0.0
2017-May-21 13:56N 59°19' E 018°05'0 0.0
2017-May-21 13:26N 59°19' E 018°05'0 0.0
2017-May-21 12:56N 59°19' E 018°05'0 0.0
2017-May-21 12:29N 59°19' E 018°05'0 0.0
2017-May-21 11:56N 59°19' E 018°05'0 0.0
2017-May-21 11:26N 59°19' E 018°05'0 0.0
2017-May-21 10:50N 59°19' E 018°05'0 0.0
2017-May-21 10:26N 59°19' E 018°05'0 0.0
2017-May-21 09:56N 59°19' E 018°05'0 0.0
2017-May-21 09:26N 59°19' E 018°05'0 0.0
2017-May-21 08:59N 59°19' E 018°05'0 0.0
2017-May-21 08:26N 59°19' E 018°05'0 0.0
2017-May-21 07:50N 59°19' E 018°05'0 0.0
2017-May-21 07:20N 59°19' E 018°05'0 0.0
2017-May-21 06:50N 59°19' E 018°05'0 0.0
2017-May-21 06:26N 59°19' E 018°05'0 0.0
2017-May-21 05:56N 59°19' E 018°05'0 0.0
2017-May-21 05:14N 59°19' E 018°05'0 0.0
2017-May-21 04:56N 59°19' E 018°05'0 0.0
2017-May-21 04:26N 59°19' E 018°05'0 0.0
2017-May-21 03:56N 59°19' E 018°05'0 0.0
2017-May-21 03:29N 59°19' E 018°05'0 0.0
2017-May-21 02:56N 59°19' E 018°05'0 0.0
2017-May-21 02:26N 59°19' E 018°05'0 0.0
2017-May-21 01:59N 59°19' E 018°05'0 0.0
2017-May-21 01:29N 59°19' E 018°05'0 0.0
2017-May-21 00:59N 59°19' E 018°05'0 0.0
2017-May-21 00:29N 59°19' E 018°05'0 0.0
2017-May-20 23:59N 59°19' E 018°05'0 0.0
2017-May-20 23:29N 59°19' E 018°05'0 0.0
2017-May-20 22:59N 59°19' E 018°05'0 0.0
2017-May-20 22:29N 59°19' E 018°05'0 0.0
2017-May-20 21:56N 59°19' E 018°05'0 0.0
2017-May-20 21:26N 59°19' E 018°05'0 0.0
2017-May-20 20:56N 59°19' E 018°05'0 0.0
2017-May-20 20:29N 59°19' E 018°05'0 0.0
2017-May-20 19:59N 59°19' E 018°05'0 0.0
2017-May-20 19:29N 59°19' E 018°05'0 0.0
2017-May-20 18:59N 59°19' E 018°05'0 0.0
2017-May-20 18:29N 59°19' E 018°05'0 0.0
2017-May-20 17:59N 59°19' E 018°05'0 0.0
2017-May-20 17:26N 59°19' E 018°05'0 0.0
2017-May-20 16:50N 59°19' E 018°05'0 0.0
2017-May-20 16:26N 59°19' E 018°05'0 0.0
2017-May-20 15:56N 59°19' E 018°05'0 0.0
2017-May-20 15:26N 59°19' E 018°05'0 0.0
2017-May-20 14:44N 59°19' E 018°05'0 0.0
2017-May-20 14:26N 59°19' E 018°05'0 0.0
2017-May-20 13:26N 59°19' E 018°05'0 0.0
2017-May-20 12:59N 59°19' E 018°05'0 0.0
2017-May-20 12:26N 59°19' E 018°05'0 0.0
2017-May-20 11:59N 59°19' E 018°05'0 0.0
2017-May-20 11:23N 59°19' E 018°05'0 0.0
2017-May-20 10:56N 59°19' E 018°05'0 0.0
2017-May-20 10:26N 59°19' E 018°05'0 0.1
2017-May-20 09:56N 59°19' E 018°05'0 0.1
2017-May-20 09:29N 59°19' E 018°05'0 0.0
2017-May-20 08:56N 59°19' E 018°05'0 0.0
2017-May-20 08:26N 59°19' E 018°05'0 0.0
2017-May-20 07:56N 59°19' E 018°05'0 0.0
2017-May-20 06:20N 59°19' E 018°05'0 0.0
2017-May-20 03:47N 59°19' E 018°05'0 0.0
2017-May-20 03:08N 59°19' E 018°05'0 0.0
2017-May-20 02:59N 59°19' E 018°05'0 0.0
2017-May-20 02:29N 59°19' E 018°05'0 0.0
2017-May-20 01:59N 59°19' E 018°05'0 0.0
2017-May-20 01:29N 59°19' E 018°05'0 0.0
2017-May-20 00:59N 59°19' E 018°05'0 0.0
2017-May-20 00:29N 59°19' E 018°05'0 0.0
2017-May-19 23:59N 59°19' E 018°05'0 0.0
2017-May-19 23:29N 59°19' E 018°05'0 0.0
2017-May-19 22:59N 59°19' E 018°05'0 0.0
2017-May-19 22:29N 59°19' E 018°05'0 0.0
2017-May-19 21:59N 59°19' E 018°05'0 0.0
2017-May-19 21:29N 59°19' E 018°05'0 0.0
2017-May-19 20:59N 59°19' E 018°05'0 0.0
2017-May-19 20:29N 59°19' E 018°05'0 0.0
2017-May-19 19:59N 59°19' E 018°05'0 0.0
2017-May-19 19:29N 59°19' E 018°05'0 0.0
2017-May-19 18:59N 59°19' E 018°05'0 0.0
2017-May-19 18:26N 59°19' E 018°05'0 0.0
2017-May-19 17:56N 59°19' E 018°05'0 0.0
2017-May-19 17:26N 59°19' E 018°05'0 0.0
2017-May-19 16:50N 59°19' E 018°05'0 0.0
2017-May-19 16:26N 59°19' E 018°05'0 0.0
2017-May-19 15:56N 59°19' E 018°05'0 0.0
2017-May-19 15:29N 59°19' E 018°05'0 0.0
2017-May-19 14:56N 59°19' E 018°05'0 0.0
2017-May-19 13:59N 59°19' E 018°05'0 0.0
2017-May-19 13:29N 59°19' E 018°05'0 0.0
2017-May-19 12:59N 59°19' E 018°05'0 0.0
2017-May-19 12:29N 59°19' E 018°05'0 0.0
2017-May-19 11:59N 59°19' E 018°05'0 0.0
2017-May-19 11:29N 59°19' E 018°05'0 0.0
2017-May-19 10:59N 59°19' E 018°05'0 0.0
2017-May-19 10:29N 59°19' E 018°05'0 0.0
2017-May-19 09:59N 59°19' E 018°05'0 0.0
2017-May-19 09:29N 59°19' E 018°05'0 0.0
2017-May-19 08:59N 59°19' E 018°05'0 0.0
2017-May-19 08:29N 59°19' E 018°05'0 0.0
2017-May-19 07:59N 59°19' E 018°05'0 0.0
2017-May-19 07:29N 59°19' E 018°05'0 0.0
2017-May-19 06:59N 59°19' E 018°05'0 0.0
2017-May-19 06:26N 59°19' E 018°05'0 0.0
2017-May-19 05:59N 59°19' E 018°05'0 0.0
2017-May-19 05:26N 59°19' E 018°05'0 0.0
2017-May-19 04:56N 59°19' E 018°05'0 0.0
2017-May-19 04:26N 59°19' E 018°05'0 0.0
2017-May-19 03:50N 59°19' E 018°05'0 0.0
2017-May-19 03:29N 59°19' E 018°05'0 0.0
2017-May-19 02:59N 59°19' E 018°05'0 0.0
2017-May-19 02:29N 59°19' E 018°05'0 0.0
2017-May-19 01:59N 59°19' E 018°05'0 0.0
2017-May-19 01:29N 59°19' E 018°05'0 0.0
2017-May-19 00:59N 59°19' E 018°05'0 0.0
2017-May-19 00:29N 59°19' E 018°05'0 0.0
2017-May-18 23:59N 59°19' E 018°05'0 0.0
2017-May-18 23:29N 59°19' E 018°05'0 0.0
2017-May-18 22:59N 59°19' E 018°05'0 0.0
2017-May-18 22:29N 59°19' E 018°05'0 0.0
2017-May-18 21:59N 59°19' E 018°05'0 0.0
2017-May-18 21:29N 59°19' E 018°05'0 0.0
2017-May-18 20:56N 59°19' E 018°05'  

Dump ship's entire track history